Time;durP1;ratioP1;P1;durP2;ratioP2;P2;SDS_P1;SDS_P2;PMS_P1;PMS_P2;Temp;Humidity;BMP_temperature;BMP_pressure;BME280_temperature;BME280_humidity;BME280_pressure;Samples;Min_cycle;Max_cycle;Signal;HPM_P1;HPM_P2
2022/11/20 00:01:35;;;;;;;17.90;13.97;;;0.10;99.90;;;;;;5028807;28;20687;-75
2022/11/20 00:04:02;;;;;;;16.23;12.47;;;0.00;99.90;;;;;;5026880;28;20199;-75
2022/11/20 00:06:30;;;;;;;20.40;13.37;;;0.00;99.90;;;;;;5030803;28;20199;-75
2022/11/20 00:09:01;;;;;;;18.43;14.73;;;0.00;99.90;;;;;;5019627;28;20559;-75
2022/11/20 00:11:29;;;;;;;17.43;13.40;;;-0.10;99.90;;;;;;5024822;28;20202;-75
2022/11/20 00:13:59;;;;;;;19.17;13.60;;;-0.10;99.90;;;;;;5023058;28;20207;-75
2022/11/20 00:16:34;;;;;;;17.97;13.80;;;0.00;99.90;;;;;;5019551;28;20231;-75
2022/11/20 00:19:02;;;;;;;23.27;13.97;;;0.10;99.90;;;;;;5016782;28;20211;-75
2022/11/20 00:21:30;;;;;;;17.93;14.23;;;0.20;99.90;;;;;;5023229;28;20214;-75
2022/11/20 00:23:59;;;;;;;20.63;14.90;;;0.20;99.90;;;;;;5037774;28;20199;-75
2022/11/20 00:26:28;;;;;;;19.13;14.80;;;0.50;99.90;;;;;;5019736;28;20569;-76
2022/11/20 00:28:58;;;;;;;19.70;14.57;;;0.40;99.90;;;;;;5026597;28;20223;-76
2022/11/20 00:31:26;;;;;;;18.63;14.27;;;0.50;99.90;;;;;;5031192;28;20214;-74
2022/11/20 00:33:54;;;;;;;23.63;15.83;;;0.60;99.90;;;;;;5047432;28;20210;-73
2022/11/20 00:36:23;;;;;;;19.20;15.13;;;0.60;99.90;;;;;;5027834;28;20215;-73
2022/11/20 00:38:52;;;;;;;21.03;14.60;;;0.50;99.90;;;;;;5031218;28;20586;-73
2022/11/20 00:41:21;;;;;;;21.73;15.33;;;0.50;99.90;;;;;;5018586;28;20205;-73
2022/11/20 00:43:49;;;;;;;20.93;15.13;;;0.50;99.90;;;;;;5028420;28;20206;-73
2022/11/20 00:46:18;;;;;;;20.43;14.93;;;0.40;99.90;;;;;;5025696;28;20187;-73
2022/11/20 00:48:46;;;;;;;23.10;15.00;;;0.50;99.90;;;;;;5028334;28;20223;-73
2022/11/20 00:51:15;;;;;;;20.47;15.10;;;0.50;99.90;;;;;;5026224;28;20203;-73
2022/11/20 00:53:43;;;;;;;18.27;13.73;;;0.60;99.90;;;;;;5024571;28;20203;-72
2022/11/20 00:56:12;;;;;;;19.90;14.47;;;0.40;99.90;;;;;;5040667;28;20218;-73
2022/11/20 00:58:43;;;;;;;22.27;16.17;;;0.30;99.90;;;;;;5019713;28;20226;-73
2022/11/20 01:01:12;;;;;;;21.60;15.60;;;0.30;99.90;;;;;;5017440;28;20203;-73
2022/11/20 01:03:42;;;;;;;22.03;15.83;;;0.20;99.90;;;;;;5038824;28;20215;-73
2022/11/20 01:06:12;;;;;;;21.33;15.53;;;0.40;99.90;;;;;;5024212;28;20199;-73
2022/11/20 01:08:40;;;;;;;23.10;16.27;;;0.50;99.90;;;;;;5027086;28;20226;-73
2022/11/20 01:11:10;;;;;;;22.87;16.17;;;0.40;99.90;;;;;;5030686;28;20194;-73
2022/11/20 01:13:38;;;;;;;25.43;15.73;;;0.40;99.90;;;;;;5026743;28;20554;-73
2022/11/20 01:16:08;;;;;;;22.17;16.30;;;0.50;99.90;;;;;;5024902;28;20206;-73
2022/11/20 01:18:48;;;;;;;22.47;16.37;;;0.50;99.90;;;;;;5027434;28;20227;-73
2022/11/20 01:21:17;;;;;;;22.13;15.93;;;0.60;99.90;;;;;;5021982;28;20186;-73
2022/11/20 01:23:45;;;;;;;22.17;15.60;;;0.70;99.90;;;;;;5027041;28;20208;-73
2022/11/20 01:26:15;;;;;;;22.67;15.27;;;0.90;99.90;;;;;;5027033;28;20203;-73
2022/11/20 01:28:43;;;;;;;21.77;14.93;;;1.00;99.90;;;;;;5025752;28;20229;-73
2022/11/20 01:31:17;;;;;;;20.77;15.23;;;1.10;99.90;;;;;;5020534;28;20214;-73
2022/11/20 01:33:46;;;;;;;21.17;16.13;;;0.90;99.90;;;;;;5019016;28;20187;-72
2022/11/20 01:36:14;;;;;;;18.57;14.53;;;0.60;99.90;;;;;;5018252;28;20300;-73
2022/11/20 01:38:42;;;;;;;19.93;15.03;;;0.30;99.90;;;;;;5027174;28;20229;-71
2022/11/20 01:41:10;;;;;;;20.07;14.67;;;0.30;99.90;;;;;;5013717;28;20198;-73
2022/11/20 01:43:37;;;;;;;17.60;13.80;;;0.20;99.90;;;;;;5024258;28;20195;-73
2022/11/20 01:46:15;;;;;;;21.33;14.93;;;0.30;99.90;;;;;;5024842;28;20187;-73
2022/11/20 01:48:49;;;;;;;21.30;15.13;;;0.40;99.90;;;;;;5022703;28;20228;-75
2022/11/20 01:51:24;;;;;;;21.27;15.20;;;0.60;99.90;;;;;;5029344;28;20191;-75
2022/11/20 01:53:56;;;;;;;21.60;15.57;;;0.60;99.90;;;;;;5020633;28;20207;-75
2022/11/20 01:56:26;;;;;;;17.77;13.73;;;0.80;99.90;;;;;;5026031;28;20205;-75
2022/11/20 01:58:57;;;;;;;20.23;15.43;;;0.90;99.90;;;;;;5042811;28;20224;-75
2022/11/20 02:01:26;;;;;;;19.90;14.63;;;1.00;99.90;;;;;;5016785;28;20209;-75
2022/11/20 02:03:54;;;;;;;21.27;15.67;;;0.70;99.90;;;;;;5029148;28;20202;-75
2022/11/20 02:06:26;;;;;;;20.07;15.00;;;0.60;99.90;;;;;;5024088;28;20199;-75
2022/11/20 02:08:54;;;;;;;23.33;14.73;;;0.50;99.90;;;;;;5021092;28;20230;-75
2022/11/20 02:11:22;;;;;;;22.67;16.80;;;0.40;99.90;;;;;;5027285;28;20202;-75
2022/11/20 02:13:49;;;;;;;20.20;14.40;;;0.40;99.90;;;;;;5025085;28;20719;-75
2022/11/20 02:16:20;;;;;;;18.33;13.63;;;0.40;99.90;;;;;;5026410;28;20223;-75
2022/11/20 02:18:49;;;;;;;20.70;14.37;;;0.50;99.90;;;;;;5030408;28;20598;-75
2022/11/20 02:21:35;;;;;;;16.97;14.50;;;0.40;99.90;;;;;;5022625;28;20192;-75
2022/11/20 02:24:06;;;;;;;19.20;14.07;;;0.10;99.90;;;;;;5028287;28;20205;-75
2022/11/20 02:26:39;;;;;;;20.10;15.80;;;0.00;99.90;;;;;;5018275;28;20198;-75
2022/11/20 02:29:06;;;;;;;18.40;14.67;;;-0.10;99.90;;;;;;5027680;28;20222;-75
2022/11/20 02:31:39;;;;;;;18.33;13.63;;;0.00;99.90;;;;;;5037631;28;20557;-75
2022/11/20 02:34:07;;;;;;;19.90;15.50;;;0.20;99.90;;;;;;5025698;28;20196;-75
2022/11/20 02:36:36;;;;;;;18.00;13.83;;;0.20;99.90;;;;;;5033088;28;20215;-75
2022/11/20 02:39:06;;;;;;;21.10;14.53;;;0.10;99.90;;;;;;5029711;28;20220;-75
2022/11/20 02:41:35;;;;;;;21.93;14.90;;;0.20;99.90;;;;;;5024993;28;20195;-75
2022/11/20 02:44:03;;;;;;;18.80;14.13;;;0.10;99.90;;;;;;5028834;28;20192;-75
2022/11/20 02:46:31;;;;;;;20.50;14.57;;;0.20;99.90;;;;;;5025299;28;20653;-73
2022/11/20 02:48:58;;;;;;;20.87;15.47;;;0.20;99.90;;;;;;5032026;28;20238;-75
2022/11/20 02:51:26;;;;;;;19.97;15.13;;;0.00;99.90;;;;;;5029611;28;20199;-75
2022/11/20 02:53:53;;;;;;;18.77;14.03;;;0.00;99.90;;;;;;5027150;28;20684;-75
2022/11/20 02:56:22;;;;;;;20.23;15.33;;;0.10;99.90;;;;;;5023862;28;20206;-75
2022/11/20 02:58:50;;;;;;;18.13;15.10;;;0.10;99.90;;;;;;5027983;28;20218;-75
2022/11/20 03:01:17;;;;;;;18.17;14.07;;;0.10;99.90;;;;;;5025088;28;20201;-75
2022/11/20 03:03:45;;;;;;;21.37;14.93;;;0.00;99.90;;;;;;5045979;28;20202;-75
2022/11/20 03:06:12;;;;;;;19.93;14.97;;;-0.20;99.90;;;;;;5023180;28;20561;-75
2022/11/20 03:08:39;;;;;;;17.17;14.47;;;-0.20;99.90;;;;;;5026014;28;20231;-75
2022/11/20 03:11:09;;;;;;;18.90;14.20;;;-0.40;99.90;;;;;;5031132;28;20199;-75
2022/11/20 03:13:38;;;;;;;17.70;13.40;;;-0.50;99.90;;;;;;5026222;28;20548;-75
2022/11/20 03:16:11;;;;;;;16.90;13.80;;;-0.40;99.90;;;;;;5017749;28;20211;-75
2022/11/20 03:18:39;;;;;;;17.70;13.30;;;-0.50;99.90;;;;;;5027037;28;20227;-75
2022/11/20 03:21:07;;;;;;;19.23;14.70;;;-0.40;99.90;;;;;;5020722;28;20197;-75
2022/11/20 03:23:37;;;;;;;19.57;13.70;;;-0.30;99.90;;;;;;5021327;28;20672;-75
2022/11/20 03:26:13;;;;;;;20.00;14.87;;;-0.40;99.90;;;;;;5016502;28;20183;-75
2022/11/20 03:29:23;;;;;;;19.93;13.73;;;-0.40;99.90;;;;;;5023272;28;20576;-75
2022/11/20 03:31:52;;;;;;;18.77;14.40;;;-0.50;99.90;;;;;;5027947;28;20205;-75
2022/11/20 03:34:19;;;;;;;20.63;14.90;;;-0.60;99.90;;;;;;5022933;28;20195;-75
2022/11/20 03:36:47;;;;;;;20.40;13.97;;;-0.50;99.90;;;;;;5021882;28;20207;-75
2022/11/20 03:39:14;;;;;;;19.57;14.73;;;-0.40;99.90;;;;;;5024451;28;20222;-75
2022/11/20 03:41:43;;;;;;;19.30;14.47;;;-0.40;99.90;;;;;;5031119;28;20209;-75
2022/11/20 03:44:12;;;;;;;21.17;16.00;;;-0.30;99.90;;;;;;5031004;28;20199;-75
2022/11/20 03:46:40;;;;;;;17.73;14.23;;;-0.20;99.90;;;;;;5032889;28;20223;-75
2022/11/20 03:49:08;;;;;;;19.17;14.80;;;-0.20;99.90;;;;;;5026277;28;20219;-75
2022/11/20 03:51:37;;;;;;;19.87;13.90;;;-0.30;99.90;;;;;;5028231;28;20191;-75
2022/11/20 03:54:07;;;;;;;21.77;15.40;;;-0.30;99.90;;;;;;5025749;28;20214;-75
2022/11/20 03:56:37;;;;;;;19.23;14.43;;;-0.30;99.90;;;;;;5020630;28;20194;-75
2022/11/20 03:59:04;;;;;;;18.90;14.00;;;-0.30;99.90;;;;;;5035062;28;20223;-75
2022/11/20 04:01:34;;;;;;;20.00;14.67;;;-0.30;99.90;;;;;;5028106;28;20198;-74
2022/11/20 04:04:02;;;;;;;19.87;13.57;;;-0.40;99.90;;;;;;5030292;28;20205;-75
2022/11/20 04:06:35;;;;;;;19.07;14.27;;;-0.40;99.90;;;;;;5025839;28;20218;-75
2022/11/20 04:09:03;;;;;;;19.80;14.47;;;-0.20;99.90;;;;;;5042800;28;20234;-75
2022/11/20 04:11:31;;;;;;;21.60;15.93;;;-0.20;99.90;;;;;;5030412;28;20555;-75
2022/11/20 04:14:00;;;;;;;20.20;14.27;;;-0.30;99.90;;;;;;5024709;28;20684;-75
2022/11/20 04:16:31;;;;;;;21.70;16.10;;;-0.40;99.90;;;;;;5027739;28;20202;-75
2022/11/20 04:19:00;;;;;;;21.37;15.97;;;-0.50;99.90;;;;;;5032937;28;20238;-75
2022/11/20 04:21:28;;;;;;;21.00;15.20;;;-0.50;99.90;;;;;;5035035;28;20557;-75
2022/11/20 04:23:57;;;;;;;19.93;15.13;;;-0.40;99.90;;;;;;5022570;28;20203;-75
2022/11/20 04:26:26;;;;;;;17.00;13.63;;;-0.20;99.90;;;;;;5027555;28;20191;-75
2022/11/20 04:28:54;;;;;;;20.27;14.93;;;-0.10;99.90;;;;;;5022004;28;20697;-75
2022/11/20 04:31:24;;;;;;;20.07;15.67;;;-0.10;99.90;;;;;;5019159;28;20208;-75
2022/11/20 04:33:51;;;;;;;18.83;14.50;;;-0.30;99.90;;;;;;5018787;28;20203;-75
2022/11/20 04:36:20;;;;;;;21.33;15.27;;;-0.20;99.90;;;;;;5026507;28;20213;-75
2022/11/20 04:38:51;;;;;;;21.33;15.50;;;-0.20;99.90;;;;;;5021929;28;20227;-75
2022/11/20 04:41:34;;;;;;;19.93;14.90;;;-0.20;99.90;;;;;;5027304;28;20217;-75
2022/11/20 04:44:03;;;;;;;19.43;14.17;;;-0.10;99.90;;;;;;5029058;28;20567;-75
2022/11/20 04:46:32;;;;;;;19.87;15.10;;;0.10;99.90;;;;;;5029554;28;20206;-74
2022/11/20 04:49:00;;;;;;;18.60;14.40;;;0.00;99.90;;;;;;5018039;28;20215;-75
2022/11/20 04:51:28;;;;;;;20.63;15.63;;;0.00;99.90;;;;;;5019372;28;20195;-75
2022/11/20 04:53:56;;;;;;;18.63;15.50;;;0.00;99.90;;;;;;5030286;28;20197;-75
2022/11/20 04:56:24;;;;;;;18.80;14.40;;;-0.10;99.90;;;;;;5021531;28;20200;-75
2022/11/20 04:58:53;;;;;;;20.10;14.27;;;-0.10;99.90;;;;;;5024170;28;20583;-75
2022/11/20 05:01:22;;;;;;;22.10;15.20;;;-0.20;99.90;;;;;;5024142;28;20195;-75
2022/11/20 05:03:50;;;;;;;22.40;15.80;;;0.00;99.90;;;;;;5022629;28;20211;-75
2022/11/20 05:06:20;;;;;;;19.13;13.53;;;0.00;99.90;;;;;;5018174;28;20195;-75
2022/11/20 05:08:47;;;;;;;16.00;13.80;;;0.00;99.90;;;;;;5039458;28;20228;-75
2022/11/20 05:11:16;;;;;;;19.50;13.97;;;-0.10;99.90;;;;;;5028508;28;20190;-75
2022/11/20 05:13:43;;;;;;;22.13;15.03;;;-0.20;99.90;;;;;;5044969;23;20223;-76
2022/11/20 05:16:14;;;;;;;22.17;16.10;;;0.00;99.90;;;;;;5029630;28;20202;-76
2022/11/20 05:18:42;;;;;;;18.20;14.77;;;0.10;99.90;;;;;;5027914;28;20191;-76
2022/11/20 05:21:11;;;;;;;18.63;14.27;;;0.20;99.90;;;;;;5019767;28;20214;-76
2022/11/20 05:23:39;;;;;;;19.83;14.23;;;0.10;99.90;;;;;;5022501;28;20215;-76
2022/11/20 05:26:08;;;;;;;20.57;15.23;;;0.00;99.90;;;;;;5028500;28;20202;-76
2022/11/20 05:28:35;;;;;;;18.67;14.50;;;0.00;99.90;;;;;;5040963;28;20220;-74
2022/11/20 05:31:07;;;;;;;19.40;14.73;;;0.10;99.90;;;;;;5030191;28;20183;-76
2022/11/20 05:33:37;;;;;;;17.70;14.27;;;0.10;99.90;;;;;;5017564;28;20219;-76
2022/11/20 05:36:16;;;;;;;21.03;13.83;;;0.10;99.90;;;;;;5026305;28;20201;-76
2022/11/20 05:38:44;;;;;;;19.60;14.17;;;0.10;99.90;;;;;;5029786;28;20190;-76
2022/11/20 05:41:14;;;;;;;22.30;13.63;;;0.10;99.90;;;;;;5025790;28;20210;-76
2022/11/20 05:43:43;;;;;;;20.63;14.50;;;0.30;99.90;;;;;;5024730;28;20712;-76
2022/11/20 05:46:14;;;;;;;19.53;14.90;;;0.20;99.90;;;;;;5021912;28;20215;-76
2022/11/20 05:48:44;;;;;;;20.97;14.63;;;0.10;99.90;;;;;;5028896;28;20590;-76
2022/11/20 05:51:14;;;;;;;17.60;13.47;;;0.10;99.90;;;;;;5024011;28;20232;-75
2022/11/20 05:53:42;;;;;;;20.10;13.97;;;0.10;99.90;;;;;;5028747;28;20234;-76
2022/11/20 05:56:11;;;;;;;17.77;14.07;;;-0.10;99.90;;;;;;5035328;28;20199;-75
2022/11/20 05:58:39;;;;;;;20.70;15.13;;;0.10;99.90;;;;;;5035081;28;20191;-76
2022/11/20 06:01:09;;;;;;;19.20;14.87;;;0.20;99.90;;;;;;5023099;28;20203;-76
2022/11/20 06:03:37;;;;;;;18.33;14.37;;;0.30;99.90;;;;;;5030583;28;20234;-76
2022/11/20 06:06:07;;;;;;;19.97;14.30;;;0.30;99.90;;;;;;5032507;28;20201;-75
2022/11/20 06:08:35;;;;;;;17.73;13.53;;;0.30;99.90;;;;;;5032257;28;20689;-76
2022/11/20 06:11:06;;;;;;;17.90;13.33;;;0.20;99.90;;;;;;5031865;28;20656;-75
2022/11/20 06:13:34;;;;;;;18.57;12.87;;;0.30;99.90;;;;;;5031742;28;20595;-75
2022/11/20 06:16:02;;;;;;;19.50;13.47;;;0.10;99.90;;;;;;5035883;28;20199;-75
2022/11/20 06:18:30;;;;;;;19.60;14.03;;;0.20;99.90;;;;;;5033829;28;20206;-75
2022/11/20 06:21:02;;;;;;;20.17;13.80;;;0.30;99.90;;;;;;5028379;28;20199;-76
2022/11/20 06:23:32;;;;;;;19.73;14.37;;;0.20;99.90;;;;;;5030662;28;20226;-75
2022/11/20 06:26:03;;;;;;;19.33;13.60;;;0.30;99.90;;;;;;5034606;28;20199;-76
2022/11/20 06:28:30;;;;;;;20.77;13.73;;;0.20;99.90;;;;;;5028182;28;20215;-76
2022/11/20 06:30:58;;;;;;;16.77;12.43;;;0.20;99.90;;;;;;5024454;28;20195;-80
2022/11/20 06:33:26;;;;;;;16.77;12.60;;;0.20;99.90;;;;;;5035476;28;20565;-79
2022/11/20 06:35:57;;;;;;;17.57;13.10;;;1.00;99.90;;;;;;5043335;28;20207;-79
2022/11/20 06:38:24;;;;;;;16.73;12.70;;;1.00;99.90;;;;;;5033088;28;20201;-79
2022/11/20 06:40:53;;;;;;;17.77;13.40;;;0.90;99.90;;;;;;5039253;28;20437;-78
2022/11/20 06:46:29;;;;;;;17.67;13.60;;;0.30;99.90;;;;;;5035510;28;20198;-79
2022/11/20 06:48:58;;;;;;;19.63;15.00;;;0.30;99.90;;;;;;5042538;28;20215;-77
2022/11/20 06:51:25;;;;;;;16.67;13.50;;;0.10;99.90;;;;;;5051309;28;20257;-78
2022/11/20 06:53:53;;;;;;;18.40;13.77;;;-0.10;99.90;;;;;;5045824;28;20217;-78
2022/11/20 06:56:22;;;;;;;17.50;12.27;;;-0.10;99.90;;;;;;5050093;28;20183;-78
2022/11/20 06:58:50;;;;;;;17.20;12.50;;;-0.10;99.90;;;;;;5046079;28;20203;-78
2022/11/20 07:01:18;;;;;;;18.70;13.10;;;-0.20;99.90;;;;;;5060103;28;20207;-77
2022/11/20 07:03:45;;;;;;;15.63;12.10;;;-0.10;99.90;;;;;;5049754;28;20213;-78
2022/11/20 07:06:13;;;;;;;18.80;14.30;;;-0.30;99.90;;;;;;5041016;28;20195;-79
2022/11/20 07:08:41;;;;;;;18.77;13.77;;;-0.20;99.90;;;;;;5043315;28;20223;-79
2022/11/20 07:11:09;;;;;;;19.93;13.33;;;-0.20;99.90;;;;;;5050996;28;20199;-80
2022/11/20 07:13:38;;;;;;;16.90;13.57;;;-0.30;99.90;;;;;;5043221;28;20802;-80
2022/11/20 07:16:08;;;;;;;17.83;12.70;;;-0.30;99.90;;;;;;5060578;28;20209;-80
2022/11/20 07:18:36;;;;;;;17.80;13.67;;;-0.30;99.90;;;;;;5051161;28;20318;-78
2022/11/20 07:21:07;;;;;;;19.87;14.23;;;-0.30;99.90;;;;;;5039043;28;20699;-79
2022/11/20 07:23:35;;;;;;;16.57;12.87;;;-0.40;99.90;;;;;;5043088;28;20222;-79
2022/11/20 07:26:04;;;;;;;17.10;12.83;;;-0.20;99.90;;;;;;5037154;28;20202;-79
2022/11/20 07:28:33;;;;;;;18.27;12.77;;;-0.20;99.90;;;;;;5040157;28;20226;-79
2022/11/20 07:31:03;;;;;;;18.17;13.80;;;-0.20;99.90;;;;;;5047465;28;20210;-79
2022/11/20 07:33:31;;;;;;;17.90;12.57;;;-0.30;99.90;;;;;;5036687;28;20221;-79
2022/11/20 07:36:00;;;;;;;17.53;13.30;;;-0.20;99.90;;;;;;5037290;28;20194;-79
2022/11/20 07:38:27;;;;;;;20.27;13.97;;;-0.20;99.90;;;;;;5025793;28;20206;-81
2022/11/20 07:40:57;;;;;;;19.47;13.97;;;-0.20;99.90;;;;;;5033570;28;20564;-80
2022/11/20 07:43:25;;;;;;;18.97;14.13;;;0.00;99.90;;;;;;5032835;28;20214;-82
2022/11/20 07:45:52;;;;;;;17.20;14.20;;;0.10;99.90;;;;;;5034411;28;20202;-81
2022/11/20 07:48:21;;;;;;;17.73;13.23;;;0.20;99.90;;;;;;5030697;28;20222;-79
2022/11/20 07:50:48;;;;;;;19.07;14.43;;;0.20;99.90;;;;;;5051485;28;20199;-80
2022/11/20 07:53:20;;;;;;;20.50;13.90;;;0.10;99.90;;;;;;5032092;28;20222;-78
2022/11/20 07:55:48;;;;;;;21.03;13.87;;;0.20;99.90;;;;;;5033345;28;20199;-80
2022/11/20 07:58:15;;;;;;;18.37;11.93;;;0.20;99.90;;;;;;5029493;28;20202;-80
2022/11/20 08:00:45;;;;;;;18.40;13.23;;;0.20;99.90;;;;;;5029056;28;20206;-79
2022/11/20 08:03:12;;;;;;;16.97;12.83;;;0.30;99.90;;;;;;5023874;28;20227;-79
2022/11/20 08:05:42;;;;;;;18.67;13.10;;;0.30;99.90;;;;;;5036088;28;20253;-79
2022/11/20 08:08:10;;;;;;;18.07;13.17;;;0.40;99.90;;;;;;5032972;28;20207;-79
2022/11/20 08:10:38;;;;;;;18.47;13.00;;;0.40;99.90;;;;;;5035338;28;20207;-78
2022/11/20 08:15:51;;;;;;;19.10;14.47;;;0.40;99.90;;;;;;5031926;28;20200;-80
2022/11/20 08:18:19;;;;;;;22.20;15.03;;;0.50;99.90;;;;;;5034253;28;20206;-79
2022/11/20 08:20:48;;;;;;;20.73;14.87;;;0.60;99.90;;;;;;5035406;28;20211;-80
2022/11/20 08:23:15;;;;;;;19.73;14.97;;;0.70;99.90;;;;;;5034390;28;20226;-78
2022/11/20 08:25:43;;;;;;;20.83;15.37;;;0.90;99.90;;;;;;5035707;28;20219;-78
2022/11/20 08:28:11;;;;;;;19.07;13.80;;;1.20;99.90;;;;;;5033900;28;20195;-79
2022/11/20 08:30:38;;;;;;;18.13;14.10;;;1.40;99.90;;;;;;5037664;28;20203;-79
2022/11/20 08:33:08;;;;;;;21.00;15.40;;;1.50;99.90;;;;;;5025549;28;20219;-77
2022/11/20 08:35:37;;;;;;;21.07;14.67;;;1.70;99.90;;;;;;5032629;28;20209;-78
2022/11/20 08:38:07;;;;;;;21.93;15.63;;;1.60;99.90;;;;;;5032363;28;20217;-78
2022/11/20 08:40:34;;;;;;;20.87;15.07;;;1.80;99.90;;;;;;5027572;28;20206;-80
2022/11/20 08:43:03;;;;;;;23.83;17.17;;;1.70;99.90;;;;;;5033717;28;20216;-79
2022/11/20 08:45:31;;;;;;;21.03;16.27;;;1.90;99.90;;;;;;5032897;28;20214;-79
2022/11/20 08:48:04;;;;;;;22.40;15.73;;;2.00;99.90;;;;;;5043996;28;20195;-78
2022/11/20 08:50:33;;;;;;;24.07;16.93;;;1.90;99.90;;;;;;5034735;28;20214;-79
2022/11/20 08:53:04;;;;;;;20.33;15.50;;;2.10;99.90;;;;;;5030909;28;20305;-79
2022/11/20 08:55:35;;;;;;;20.50;16.53;;;2.10;99.90;;;;;;5038596;28;20283;-79
2022/11/20 08:58:04;;;;;;;22.40;16.23;;;2.30;99.90;;;;;;5041356;28;20192;-79
2022/11/20 09:00:32;;;;;;;23.93;17.57;;;2.40;99.90;;;;;;5036827;28;20201;-78
2022/11/20 09:03:00;;;;;;;25.53;19.20;;;2.50;99.90;;;;;;5031545;28;20229;-79
2022/11/20 09:05:28;;;;;;;25.93;19.30;;;2.60;99.90;;;;;;5031536;28;20568;-78
2022/11/20 09:07:57;;;;;;;27.47;19.33;;;2.70;99.90;;;;;;5028423;28;20208;-80
2022/11/20 09:10:25;;;;;;;28.00;20.57;;;2.70;99.90;;;;;;5038954;28;20688;-79
2022/11/20 09:12:54;;;;;;;32.83;22.40;;;2.70;99.90;;;;;;5033472;28;20236;-79
2022/11/20 09:15:23;;;;;;;28.03;20.20;;;2.80;99.90;;;;;;5032703;28;20208;-78
2022/11/20 09:17:53;;;;;;;24.63;19.53;;;3.00;99.90;;;;;;5059383;28;20212;-79
2022/11/20 09:20:23;;;;;;;22.63;18.07;;;3.20;99.90;;;;;;5053150;28;20203;-79
2022/11/20 09:22:53;;;;;;;25.10;19.53;;;3.40;99.90;;;;;;5035981;28;20231;-78
2022/11/20 09:25:20;;;;;;;28.23;20.87;;;3.40;99.90;;;;;;5039823;28;20218;-78
2022/11/20 09:27:48;;;;;;;30.93;22.03;;;3.50;99.90;;;;;;5041177;28;20202;-78
2022/11/20 09:30:17;;;;;;;32.30;22.17;;;3.70;99.90;;;;;;5034286;28;20221;-78
2022/11/20 09:32:46;;;;;;;30.43;20.83;;;3.90;99.90;;;;;;5040418;28;20220;-79
2022/11/20 09:35:14;;;;;;;34.87;22.93;;;4.10;99.90;;;;;;5040248;28;20212;-79
2022/11/20 09:37:42;;;;;;;31.17;22.87;;;4.20;99.90;;;;;;5042769;28;20203;-79
2022/11/20 09:40:20;;;;;;;35.37;22.57;;;4.30;99.90;;;;;;5029264;28;20202;-79
2022/11/20 09:42:55;;;;;;;36.13;23.23;;;4.40;99.90;;;;;;5036512;28;20232;-79
2022/11/20 09:45:38;;;;;;;34.03;23.10;;;4.40;99.90;;;;;;5037858;28;20210;-79
2022/11/20 09:48:27;;;;;;;21.57;15.70;;;4.50;99.90;;;;;;5030874;28;20198;-79
2022/11/20 09:51:01;;;;;;;29.17;20.23;;;6.30;99.90;;;;;;5039297;28;20220;-80
2022/11/20 09:53:40;;;;;;;33.63;21.77;;;7.00;99.90;;;;;;5036939;28;20221;-80
2022/11/20 09:56:12;;;;;;;31.27;21.83;;;7.40;99.90;;;;;;5036892;28;20209;-79
2022/11/20 09:58:44;;;;;;;27.93;18.97;;;6.00;99.90;;;;;;5031250;28;20694;-78
2022/11/20 10:01:17;;;;;;;28.90;19.90;;;5.10;99.90;;;;;;5037311;28;20715;-79
2022/11/20 10:03:55;;;;;;;23.10;17.53;;;4.70;99.90;;;;;;5021547;28;20233;-78
2022/11/20 10:06:31;;;;;;;24.63;17.40;;;4.60;99.90;;;;;;5029452;28;20259;-78
2022/11/20 10:09:17;;;;;;;24.80;16.60;;;4.50;99.90;;;;;;5032850;28;20214;-77
2022/11/20 10:11:56;;;;;;;23.73;16.23;;;4.40;99.90;;;;;;5030505;28;20207;-78
2022/11/20 10:14:32;;;;;;;24.30;16.50;;;4.40;99.90;;;;;;5037028;28;20228;-77
2022/11/20 10:17:10;;;;;;;20.17;14.53;;;4.50;99.90;;;;;;5045874;28;20201;-78
2022/11/20 10:20:00;;;;;;;22.43;14.87;;;4.30;99.90;;;;;;5035268;28;20204;-78
2022/11/20 10:22:42;;;;;;;19.67;13.90;;;4.10;99.90;;;;;;5030115;28;20199;-77
2022/11/20 10:25:15;;;;;;;13.37;9.93;;;4.00;99.90;;;;;;5029470;28;20219;-78
2022/11/20 10:28:23;;;;;;;17.83;11.67;;;4.00;99.90;;;;;;5035230;28;20274;-78
2022/11/20 10:31:03;;;;;;;18.13;12.03;;;3.80;99.90;;;;;;4978624;28;20216;-81
2022/11/20 10:33:36;;;;;;;17.67;11.97;;;4.00;99.90;;;;;;4969220;28;20224;-78
2022/11/20 10:36:15;;;;;;;16.17;11.37;;;4.10;99.90;;;;;;5016016;28;20684;-77
2022/11/20 10:38:45;;;;;;;15.33;11.77;;;3.90;99.90;;;;;;5034361;28;20213;-78
2022/11/20 10:41:26;;;;;;;14.97;11.17;;;3.80;99.90;;;;;;5031546;28;20270;-80
2022/11/20 10:44:02;;;;;;;18.20;12.70;;;3.80;99.90;;;;;;5041052;28;20245;-81
2022/11/20 10:46:38;;;;;;;17.10;12.73;;;4.10;99.90;;;;;;5036447;28;20205;-78
2022/11/20 10:49:13;;;;;;;17.23;12.27;;;4.10;99.90;;;;;;5034279;28;20212;-78
2022/11/20 10:51:51;;;;;;;17.80;12.13;;;4.20;99.90;;;;;;5026966;28;20212;-78
2022/11/20 10:54:25;;;;;;;17.73;12.40;;;4.10;99.90;;;;;;5046006;28;20221;-78
2022/11/20 10:56:54;;;;;;;19.00;13.03;;;4.20;99.90;;;;;;5038995;28;20206;-79
2022/11/20 11:00:00;;;;;;;19.47;13.47;;;4.30;99.90;;;;;;5037985;28;20681;-78
2022/11/20 11:02:35;;;;;;;17.47;13.00;;;4.20;99.90;;;;;;5035968;28;20201;-78
2022/11/20 11:05:15;;;;;;;20.43;14.47;;;4.30;99.90;;;;;;5036337;28;20193;-78
2022/11/20 11:07:45;;;;;;;19.33;13.50;;;4.30;99.90;;;;;;5033199;28;20199;-78
2022/11/20 11:10:18;;;;;;;20.57;13.30;;;4.50;99.90;;;;;;5037801;28;20229;-78
2022/11/20 11:12:47;;;;;;;17.97;13.53;;;4.40;99.90;;;;;;5034662;28;20234;-80
2022/11/20 11:15:26;;;;;;;19.50;13.10;;;4.50;99.90;;;;;;5041948;28;20207;-80
2022/11/20 11:17:54;;;;;;;17.00;12.80;;;4.60;99.90;;;;;;5040861;28;20222;-78
2022/11/20 11:20:24;;;;;;;18.47;12.30;;;4.60;99.90;;;;;;4992921;23;20241;-77
2022/11/20 11:22:55;;;;;;;17.73;12.87;;;4.70;99.90;;;;;;4974358;28;20216;-77
2022/11/20 11:25:27;;;;;;;15.93;11.53;;;4.70;99.90;;;;;;4966749;28;20204;-77
2022/11/20 11:27:58;;;;;;;18.87;11.33;;;4.70;99.90;;;;;;4974527;28;20191;-77
2022/11/20 11:30:28;;;;;;;15.93;11.50;;;4.70;99.90;;;;;;4973307;28;20221;-77
2022/11/20 11:33:07;;;;;;;16.57;11.63;;;4.80;99.90;;;;;;4968231;28;20198;-77
2022/11/20 11:35:46;;;;;;;16.77;12.20;;;4.80;99.90;;;;;;4973562;28;20215;-77
2022/11/20 11:38:17;;;;;;;17.07;11.23;;;4.80;99.90;;;;;;4972455;28;20212;-77
2022/11/20 11:40:58;;;;;;;17.63;11.63;;;4.80;99.90;;;;;;4985435;28;20222;-77
2022/11/20 11:46:30;;;;;;;15.27;10.80;;;4.80;99.90;;;;;;4985112;28;20202;-77
2022/11/20 11:48:58;;;;;;;15.67;10.77;;;5.00;99.90;;;;;;4970589;28;20306;-77
2022/11/20 11:51:33;;;;;;;15.53;12.13;;;5.00;99.90;;;;;;4972833;28;20228;-77
2022/11/20 11:54:03;;;;;;;14.13;10.53;;;4.90;99.90;;;;;;4968581;28;20205;-77
2022/11/20 11:56:33;;;;;;;16.63;10.43;;;4.80;99.90;;;;;;4972581;28;20206;-77
2022/11/20 11:59:07;;;;;;;14.47;10.80;;;4.80;99.90;;;;;;4965371;28;20227;-77
2022/11/20 12:01:40;;;;;;;14.70;9.77;;;4.90;99.90;;;;;;4987375;28;20194;-77
2022/11/20 12:04:18;;;;;;;15.10;10.97;;;5.00;99.90;;;;;;4969191;28;20205;-77
2022/11/20 12:06:51;;;;;;;15.53;10.30;;;5.00;99.90;;;;;;4970414;28;20209;-77
2022/11/20 12:09:21;;;;;;;15.40;10.87;;;5.20;99.90;;;;;;4982442;28;20234;-77
2022/11/20 12:11:55;;;;;;;15.27;10.83;;;5.10;99.90;;;;;;4970408;28;20227;-77
2022/11/20 12:14:31;;;;;;;14.53;10.90;;;5.10;99.90;;;;;;4970870;28;20196;-77
2022/11/20 12:17:02;;;;;;;14.03;10.67;;;5.10;99.90;;;;;;4976585;28;20192;-77
2022/11/20 12:19:33;;;;;;;16.93;10.97;;;5.10;99.90;;;;;;4966139;28;20238;-77
2022/11/20 12:22:07;;;;;;;17.97;11.40;;;5.10;99.90;;;;;;4980716;28;20203;-77
2022/11/20 12:24:48;;;;;;;15.37;10.70;;;5.10;99.90;;;;;;4965557;28;20638;-77
2022/11/20 12:27:45;;;;;;;13.83;10.07;;;5.10;99.90;;;;;;4987748;28;20195;-77
2022/11/20 12:30:15;;;;;;;15.33;10.33;;;4.90;99.90;;;;;;4967412;28;20211;-77
2022/11/20 12:33:12;;;;;;;17.53;11.77;;;4.90;99.90;;;;;;4968657;28;20211;-77
2022/11/20 12:36:03;;;;;;;15.40;11.27;;;5.10;99.90;;;;;;4964215;28;20205;-77
2022/11/20 12:38:55;;;;;;;16.40;11.83;;;5.10;99.90;;;;;;4963532;28;20225;-77
2022/11/20 12:47:50;;;;;;;15.27;11.07;;;4.90;99.90;;;;;;4963514;28;20202;-77
2022/11/20 12:50:28;;;;;;;16.23;11.17;;;4.90;99.90;;;;;;4966607;28;20224;-77
2022/11/20 12:53:01;;;;;;;16.50;11.80;;;4.80;99.90;;;;;;4970505;28;20199;-77
2022/11/20 12:55:43;;;;;;;16.63;11.77;;;5.00;99.90;;;;;;4969513;28;20216;-77
2022/11/20 12:58:19;;;;;;;17.47;10.07;;;5.00;99.90;;;;;;4968134;28;20562;-77
2022/11/20 13:01:01;;;;;;;15.40;11.50;;;4.80;99.90;;;;;;4965454;28;20224;-77
2022/11/20 13:03:40;;;;;;;17.27;10.93;;;4.70;99.90;;;;;;4967482;28;20206;-77
2022/11/20 13:06:14;;;;;;;16.67;11.70;;;4.80;99.90;;;;;;4971049;28;20220;-77
2022/11/20 13:08:44;;;;;;;15.03;10.40;;;4.80;99.90;;;;;;4984133;28;20244;-77
2022/11/20 13:11:21;;;;;;;15.17;10.83;;;4.90;99.90;;;;;;4965589;28;20218;-77